ARG1452 SANE-SABE
Flight info
| Callsign | ARG1452 |
|---|---|
| Flight time | N/A |
| Altitude | 37000 |
| Route | DIKOR2G DIKOR UL550 ROS UT672 MULTA UW24 SNT SNT9R |
| Aircraft | B738/M-SDE2E3FGHIRWXY/LB1 |
Departure
| Time | 2026-04-29 14:53 |
|---|---|
| Airport | Vicecomodoro Angel D. La Paz Aragonés Airport (SANE) |
Arrival
| Time | N/A |
|---|---|
| Airport | Aeroparque Jorge Newbery (SABE) |
| Time | Latitude | Longitude | Altitude | Speed | Heading |
|---|---|---|---|---|---|
| 2026-04-29 14:34 | -27.75608 | -64.29951 | 663 ft | 0 kts | 145° |
| 2026-04-29 14:48 | -27.75615 | -64.29949 | 661 ft | 3 kts | 172° |
| 2026-04-29 14:48 | -27.75640 | -64.29983 | 661 ft | 10 kts | 241° |
| 2026-04-29 14:48 | -27.75669 | -64.30084 | 663 ft | 16 kts | 253° |
| 2026-04-29 14:48 | -27.75702 | -64.30214 | 665 ft | 18 kts | 253° |
| 2026-04-29 14:49 | -27.75744 | -64.30362 | 664 ft | 21 kts | 248° |
| 2026-04-29 14:49 | -27.75827 | -64.30519 | 665 ft | 25 kts | 230° |
| 2026-04-29 14:49 | -27.75974 | -64.30646 | 663 ft | 29 kts | 208° |
| 2026-04-29 14:49 | -27.76160 | -64.30758 | 665 ft | 31 kts | 208° |
| 2026-04-29 14:50 | -27.76360 | -64.30874 | 667 ft | 33 kts | 208° |
| 2026-04-29 14:50 | -27.76567 | -64.30999 | 667 ft | 35 kts | 208° |
| 2026-04-29 14:50 | -27.76788 | -64.31130 | 665 ft | 38 kts | 208° |
| 2026-04-29 14:50 | -27.77030 | -64.31271 | 664 ft | 40 kts | 207° |
| 2026-04-29 14:51 | -27.77274 | -64.31416 | 668 ft | 37 kts | 207° |
| 2026-04-29 14:51 | -27.77476 | -64.31521 | 671 ft | 16 kts | 173° |
| 2026-04-29 14:51 | -27.77510 | -64.31553 | 672 ft | 7 kts | 349° |
| 2026-04-29 14:51 | -27.77485 | -64.31543 | 671 ft | 0 kts | 27° |
| 2026-04-29 14:52 | -27.77372 | -64.31475 | 670 ft | 52 kts | 28° |
| 2026-04-29 14:52 | -27.76820 | -64.31149 | 664 ft | 124 kts | 27° |
| 2026-04-29 14:52 | -27.75896 | -64.30608 | 863 ft | 164 kts | 26° |
| 2026-04-29 14:53 | -27.74844 | -64.29990 | 1602 ft | 173 kts | 28° |
| 2026-04-29 14:53 | -27.73792 | -64.29328 | 2574 ft | 170 kts | 27° |
| 2026-04-29 14:53 | -27.72722 | -64.28659 | 3332 ft | 186 kts | 27° |
| 2026-04-29 14:53 | -27.71489 | -64.27934 | 3646 ft | 215 kts | 25° |
| 2026-04-29 14:54 | -27.70209 | -64.26922 | 3996 ft | 236 kts | 50° |
| 2026-04-29 14:54 | -27.69562 | -64.25131 | 4331 ft | 263 kts | 84° |
| 2026-04-29 14:54 | -27.69856 | -64.23048 | 5072 ft | 277 kts | 113° |
| 2026-04-29 14:54 | -27.70979 | -64.21298 | 6047 ft | 277 kts | 137° |
| 2026-04-29 14:55 | -27.72499 | -64.19957 | 6923 ft | 279 kts | 145° |
| 2026-04-29 14:55 | -27.74125 | -64.18723 | 7696 ft | 284 kts | 147° |
| 2026-04-29 14:55 | -27.75780 | -64.17482 | 8498 ft | 287 kts | 147° |
| 2026-04-29 14:55 | -27.77445 | -64.16209 | 9316 ft | 291 kts | 146° |
| 2026-04-29 14:56 | -27.79122 | -64.14905 | 10101 ft | 295 kts | 146° |
| 2026-04-29 14:56 | -27.80824 | -64.13578 | 10838 ft | 299 kts | 148° |
| 2026-04-29 14:56 | -27.82564 | -64.12278 | 11578 ft | 302 kts | 148° |
| 2026-04-29 14:56 | -27.84302 | -64.10919 | 12316 ft | 306 kts | 146° |
| 2026-04-29 14:57 | -27.86041 | -64.09500 | 13053 ft | 310 kts | 146° |
| 2026-04-29 14:57 | -27.87790 | -64.08047 | 13805 ft | 314 kts | 146° |
| 2026-04-29 14:57 | -27.89688 | -64.06842 | 14454 ft | 313 kts | 166° |
| 2026-04-29 14:57 | -27.91839 | -64.06539 | 14928 ft | 319 kts | 188° |
| 2026-04-29 14:58 | -27.94076 | -64.07025 | 15088 ft | 337 kts | 195° |
| 2026-04-29 14:58 | -27.96418 | -64.07686 | 15237 ft | 357 kts | 197° |
| 2026-04-29 14:58 | -27.98865 | -64.08401 | 15557 ft | 368 kts | 197° |
| 2026-04-29 14:58 | -28.01361 | -64.09124 | 16154 ft | 371 kts | 197° |
| 2026-04-29 14:59 | -28.03866 | -64.09835 | 16868 ft | 371 kts | 197° |
| 2026-04-29 14:59 | -28.06378 | -64.10539 | 17515 ft | 373 kts | 197° |
| 2026-04-29 14:59 | -28.08907 | -64.11242 | 18127 ft | 376 kts | 197° |
| 2026-04-29 14:59 | -28.11456 | -64.11948 | 18663 ft | 379 kts | 197° |
| 2026-04-29 15:00 | -28.14024 | -64.12658 | 19189 ft | 381 kts | 197° |
| 2026-04-29 15:00 | -28.16604 | -64.13371 | 19723 ft | 383 kts | 198° |
| 2026-04-29 15:00 | -28.19197 | -64.14088 | 20238 ft | 385 kts | 198° |
| 2026-04-29 15:00 | -28.21808 | -64.14811 | 20776 ft | 387 kts | 198° |
| 2026-04-29 15:01 | -28.24477 | -64.15311 | 21252 ft | 396 kts | 185° |
| 2026-04-29 15:01 | -28.27247 | -64.14914 | 21763 ft | 408 kts | 169° |
| 2026-04-29 15:01 | -28.29879 | -64.13607 | 22253 ft | 419 kts | 156° |
| 2026-04-29 15:01 | -28.32407 | -64.11916 | 22727 ft | 424 kts | 154° |
| 2026-04-29 15:02 | -28.34927 | -64.10154 | 23140 ft | 428 kts | 154° |
| 2026-04-29 15:02 | -28.37468 | -64.08363 | 23571 ft | 431 kts | 154° |
| 2026-04-29 15:02 | -28.40025 | -64.06570 | 23957 ft | 433 kts | 154° |
| 2026-04-29 15:02 | -28.42594 | -64.04784 | 24342 ft | 434 kts | 155° |
| 2026-04-29 15:03 | -28.45187 | -64.02997 | 24722 ft | 436 kts | 155° |
| 2026-04-29 15:03 | -28.47794 | -64.01210 | 25096 ft | 438 kts | 155° |
| 2026-04-29 15:03 | -28.50407 | -63.99422 | 25460 ft | 440 kts | 155° |
| 2026-04-29 15:03 | -28.53042 | -63.97620 | 25826 ft | 443 kts | 155° |
| 2026-04-29 15:04 | -28.55684 | -63.95812 | 26190 ft | 444 kts | 155° |
| 2026-04-29 15:04 | -28.58341 | -63.93993 | 26546 ft | 446 kts | 155° |
| 2026-04-29 15:04 | -28.61005 | -63.92167 | 26888 ft | 448 kts | 155° |
| 2026-04-29 15:04 | -28.63682 | -63.90331 | 27219 ft | 451 kts | 155° |
| 2026-04-29 15:05 | -28.66381 | -63.88478 | 27549 ft | 453 kts | 155° |
| 2026-04-29 15:05 | -28.69084 | -63.86621 | 27864 ft | 455 kts | 155° |
| 2026-04-29 15:05 | -28.71801 | -63.84753 | 28186 ft | 457 kts | 155° |
| 2026-04-29 15:05 | -28.74525 | -63.82879 | 28503 ft | 459 kts | 155° |
| 2026-04-29 15:06 | -28.77262 | -63.80996 | 28811 ft | 461 kts | 156° |
| 2026-04-29 15:06 | -28.80014 | -63.79101 | 29108 ft | 463 kts | 156° |
| 2026-04-29 15:06 | -28.82773 | -63.77196 | 29391 ft | 465 kts | 156° |
| 2026-04-29 15:06 | -28.85546 | -63.75273 | 29679 ft | 467 kts | 155° |
| 2026-04-29 15:07 | -28.88321 | -63.73344 | 29964 ft | 468 kts | 155° |
| 2026-04-29 15:07 | -28.91109 | -63.71404 | 30231 ft | 470 kts | 156° |
| 2026-04-29 15:07 | -28.93870 | -63.69481 | 30547 ft | 469 kts | 156° |
| 2026-04-29 15:07 | -28.96651 | -63.67544 | 30909 ft | 467 kts | 156° |
| 2026-04-29 15:08 | -28.99423 | -63.65611 | 31273 ft | 466 kts | 156° |
| 2026-04-29 15:08 | -29.02191 | -63.63682 | 31593 ft | 466 kts | 156° |
| 2026-04-29 15:08 | -29.04957 | -63.61755 | 31907 ft | 465 kts | 156° |
| 2026-04-29 15:08 | -29.07717 | -63.59830 | 32243 ft | 464 kts | 156° |
| 2026-04-29 15:09 | -29.10471 | -63.57906 | 32566 ft | 464 kts | 156° |
| 2026-04-29 15:09 | -29.13224 | -63.55981 | 32873 ft | 463 kts | 156° |
| 2026-04-29 15:09 | -29.15971 | -63.54057 | 33197 ft | 463 kts | 156° |
| 2026-04-29 15:09 | -29.18715 | -63.52134 | 33509 ft | 462 kts | 156° |
| 2026-04-29 15:10 | -29.21458 | -63.50211 | 33799 ft | 462 kts | 156° |
| 2026-04-29 15:10 | -29.24196 | -63.48290 | 34092 ft | 461 kts | 156° |
| 2026-04-29 15:10 | -29.26929 | -63.46372 | 34328 ft | 462 kts | 156° |
| 2026-04-29 15:10 | -29.29672 | -63.44445 | 34527 ft | 463 kts | 156° |
| 2026-04-29 15:11 | -29.32068 | -63.42762 | 34716 ft | 463 kts | 156° |
| 2026-04-29 15:11 | -29.34811 | -63.40833 | 34942 ft | 463 kts | 156° |
| 2026-04-29 15:11 | -29.37561 | -63.38897 | 35170 ft | 463 kts | 156° |
| 2026-04-29 15:11 | -29.40307 | -63.36963 | 35381 ft | 464 kts | 156° |
| 2026-04-29 15:12 | -29.43060 | -63.35023 | 35568 ft | 465 kts | 156° |
| 2026-04-29 15:12 | -29.44887 | -63.33736 | 35708 ft | 465 kts | 156° |
| 2026-04-29 15:12 | -29.48564 | -63.31138 | 36009 ft | 465 kts | 156° |
| 2026-04-29 15:12 | -29.51322 | -63.29184 | 36209 ft | 465 kts | 156° |
| 2026-04-29 15:13 | -29.54072 | -63.27232 | 36410 ft | 465 kts | 156° |
| 2026-04-29 15:13 | -29.56829 | -63.25274 | 36614 ft | 466 kts | 156° |
| 2026-04-29 15:13 | -29.59585 | -63.23316 | 36812 ft | 466 kts | 156° |
| 2026-04-29 15:13 | -29.62338 | -63.21359 | 37011 ft | 466 kts | 156° |
| 2026-04-29 15:14 | -29.65108 | -63.19390 | 37035 ft | 469 kts | 156° |
| 2026-04-29 15:14 | -29.70692 | -63.15420 | 37054 ft | 476 kts | 156° |
| 2026-04-29 15:15 | -29.76360 | -63.11381 | 37060 ft | 481 kts | 156° |
| 2026-04-29 15:15 | -29.82056 | -63.07313 | 37056 ft | 484 kts | 156° |
| 2026-04-29 15:16 | -29.87791 | -63.03210 | 37056 ft | 485 kts | 156° |
| 2026-04-29 15:16 | -29.93536 | -62.99096 | 37052 ft | 486 kts | 156° |
| 2026-04-29 15:17 | -29.99236 | -62.95008 | 37049 ft | 485 kts | 156° |
| 2026-04-29 15:17 | -30.04961 | -62.90898 | 37048 ft | 484 kts | 157° |
| 2026-04-29 15:18 | -30.10684 | -62.86784 | 37051 ft | 483 kts | 157° |
| 2026-04-29 15:18 | -30.16384 | -62.82682 | 37040 ft | 482 kts | 157° |
| 2026-04-29 15:19 | -30.22067 | -62.78585 | 37047 ft | 481 kts | 157° |
| 2026-04-29 15:19 | -30.27741 | -62.74491 | 37049 ft | 480 kts | 157° |
| 2026-04-29 15:20 | -30.33405 | -62.70397 | 37047 ft | 480 kts | 157° |
| 2026-04-29 15:20 | -30.39063 | -62.66301 | 37046 ft | 479 kts | 157° |
| 2026-04-29 15:21 | -30.44712 | -62.62207 | 37046 ft | 479 kts | 157° |
| 2026-04-29 15:21 | -30.50360 | -62.58105 | 37048 ft | 479 kts | 157° |
| 2026-04-29 15:22 | -30.56001 | -62.54003 | 37044 ft | 478 kts | 158° |
| 2026-04-29 15:22 | -30.61637 | -62.49898 | 37045 ft | 478 kts | 158° |
| 2026-04-29 15:23 | -30.67274 | -62.45787 | 37040 ft | 478 kts | 158° |
| 2026-04-29 15:23 | -30.72908 | -62.41672 | 37040 ft | 479 kts | 158° |
| 2026-04-29 15:24 | -30.78547 | -62.37549 | 37036 ft | 479 kts | 158° |
| 2026-04-29 15:24 | -30.84199 | -62.33448 | 37038 ft | 479 kts | 158° |
| 2026-04-29 15:25 | -30.89855 | -62.29356 | 37033 ft | 479 kts | 158° |
| 2026-04-29 15:25 | -30.95516 | -62.25248 | 37032 ft | 480 kts | 158° |
| 2026-04-29 15:26 | -31.01184 | -62.21125 | 37027 ft | 480 kts | 158° |
| 2026-04-29 15:26 | -31.06855 | -62.16993 | 37027 ft | 481 kts | 158° |
| 2026-04-29 15:27 | -31.12531 | -62.12847 | 37021 ft | 481 kts | 158° |
| 2026-04-29 15:27 | -31.18210 | -62.08693 | 37024 ft | 482 kts | 158° |
| 2026-04-29 15:28 | -31.23886 | -62.04513 | 37018 ft | 483 kts | 157° |
| 2026-04-29 15:28 | -31.29559 | -62.00290 | 37019 ft | 484 kts | 157° |
| 2026-04-29 15:29 | -31.35235 | -61.96055 | 37013 ft | 484 kts | 157° |
| 2026-04-29 15:30 | -31.45680 | -61.88257 | 37013 ft | 485 kts | 157° |
| 2026-04-29 15:30 | -31.51366 | -61.84005 | 37007 ft | 485 kts | 157° |
| 2026-04-29 15:31 | -31.57057 | -61.79743 | 37012 ft | 486 kts | 157° |
| 2026-04-29 15:31 | -31.62754 | -61.75470 | 37001 ft | 486 kts | 157° |
| 2026-04-29 15:32 | -31.68449 | -61.71192 | 36999 ft | 486 kts | 157° |
| 2026-04-29 15:32 | -31.74150 | -61.66902 | 36999 ft | 487 kts | 157° |
| 2026-04-29 15:33 | -31.79850 | -61.62608 | 37000 ft | 487 kts | 157° |
| 2026-04-29 15:33 | -31.85554 | -61.58304 | 37001 ft | 487 kts | 156° |
| 2026-04-29 15:34 | -31.91262 | -61.53993 | 37000 ft | 488 kts | 156° |
| 2026-04-29 15:34 | -31.96975 | -61.49681 | 36997 ft | 488 kts | 156° |
| 2026-04-29 15:35 | -32.02689 | -61.45361 | 36998 ft | 488 kts | 156° |
| 2026-04-29 15:35 | -32.08402 | -61.41034 | 36998 ft | 488 kts | 156° |
| 2026-04-29 15:36 | -32.14117 | -61.36698 | 36993 ft | 488 kts | 156° |
| 2026-04-29 15:36 | -32.19830 | -61.32357 | 36996 ft | 489 kts | 156° |
| 2026-04-29 15:37 | -32.25547 | -61.28006 | 36993 ft | 489 kts | 156° |
| 2026-04-29 15:37 | -32.31260 | -61.23653 | 36996 ft | 489 kts | 156° |
| 2026-04-29 15:38 | -32.36976 | -61.19289 | 36991 ft | 489 kts | 156° |
| 2026-04-29 15:38 | -32.42693 | -61.14919 | 36988 ft | 489 kts | 156° |
| 2026-04-29 15:39 | -32.48414 | -61.10538 | 36989 ft | 490 kts | 156° |
| 2026-04-29 15:39 | -32.54138 | -61.06149 | 36991 ft | 490 kts | 156° |
| 2026-04-29 15:40 | -32.59864 | -61.01751 | 36982 ft | 491 kts | 156° |
| 2026-04-29 15:40 | -32.65593 | -60.97344 | 36992 ft | 491 kts | 155° |
| 2026-04-29 15:41 | -32.71321 | -60.92931 | 36992 ft | 491 kts | 155° |
| 2026-04-29 15:41 | -32.77052 | -60.88508 | 36990 ft | 491 kts | 155° |
| 2026-04-29 15:42 | -32.82784 | -60.84077 | 36997 ft | 492 kts | 155° |
| 2026-04-29 15:42 | -32.88519 | -60.79638 | 37000 ft | 492 kts | 155° |
| 2026-04-29 15:43 | -32.94311 | -60.75342 | 37003 ft | 489 kts | 158° |
| 2026-04-29 15:43 | -33.00207 | -60.71327 | 36999 ft | 488 kts | 159° |
| 2026-04-29 15:44 | -33.06075 | -60.67353 | 36995 ft | 489 kts | 159° |
| 2026-04-29 15:44 | -33.11971 | -60.63306 | 36992 ft | 489 kts | 158° |
| 2026-04-29 15:45 | -33.17900 | -60.59203 | 36974 ft | 490 kts | 158° |
| 2026-04-29 15:45 | -33.23742 | -60.55148 | 36960 ft | 486 kts | 158° |
| 2026-04-29 15:46 | -33.29596 | -60.51078 | 36962 ft | 482 kts | 158° |
| 2026-04-29 15:46 | -33.32495 | -60.49063 | 36809 ft | 484 kts | 158° |
| 2026-04-29 15:46 | -33.35425 | -60.47031 | 36235 ft | 486 kts | 158° |
| 2026-04-29 15:46 | -33.38339 | -60.45002 | 35644 ft | 484 kts | 158° |
| 2026-04-29 15:47 | -33.41242 | -60.42979 | 35125 ft | 482 kts | 158° |